WTTO2: Illinois River, Watts, OK

                                SHEF ID:       WTTO2     Illinois River near Watts, OK
STATION TYPE: Stream Gauge
Regulating: Stage = 13.00, Flow = 11165

PRECIP STAGE STAGE(2) RIV-FLOW WTR-TEMP VOLTAGE BAT-LOAD
in ft ft cfs F volt volt
Ccp-Rev Ccp-Rev Ccp-Rev Ccp-Rev Ccp-Rev Ccp-Rev Ccp-Rev
(America/Chicago)
04/29 00:00 0.00 6.36 ---- 2500 65.75 ---- 12.80
04/29 01:00 0.00 6.29 ---- 2432 65.12 ---- 12.75
04/29 02:00 0.00 6.21 ---- 2355 64.96 ---- 12.71
04/29 03:00 0.00 6.21 ---- 2355 64.83 ---- 12.70
04/29 04:00 0.00 6.58 ---- 2720 64.71 ---- 12.67
04/29 05:00 0.00 7.20 ---- 3356 64.62 ---- 12.65
04/29 06:00 0.00 7.73 ---- 3902 64.67 ---- 12.63
04/29 07:00 0.00 8.02 ---- 4215 64.90 ---- 12.61
04/29 08:00 0.00 8.10 ---- 4302 65.08 ---- 13.07
04/29 09:00 0.00 7.98 ---- 4171 65.23 ---- 13.55
04/29 10:00 0.00 7.74 ---- 3913 65.32 ---- 13.59
04/29 11:00 0.00 7.47 ---- 3633 65.46 ---- 13.65
04/29 12:00 0.00 7.21 ---- 3366 65.70 ---- 13.63
04/29 13:00 0.00 6.97 ---- 3117 65.98 ---- 13.67
04/29 14:00 0.00 6.76 ---- 2903 66.25 ---- 13.44
04/29 15:00 0.00 6.59 ---- 2730 66.45 ---- 13.41
04/29 16:00 0.00 6.43 ---- 2569 66.65 ---- 13.38
04/29 17:00 0.00 6.30 ---- 2442 66.74 ---- 13.37
04/29 18:00 0.00 6.18 ---- 2327 66.74 ---- 13.34
04/29 19:00 0.00 6.09 ---- 2243 66.63 ---- 13.32
04/29 20:00 0.00 6.00 ---- 2160 66.47 ---- 13.30
04/29 21:00 0.00 5.91 ---- 2092 66.22 ---- 13.12
04/29 22:00 0.00 5.83 ---- 2033 65.97 ---- 12.99
04/29 23:00 0.00 5.80 ---- 2011 65.82 ---- 12.90
Data processed at Thu 30Apr2026 04:35 GMT

NOTICE: If you are parsing this page

Please convert to using our Data API. Starting early 2026 we will be migrating to: https://water.usace.army.mil with modern pages rendered in JavaScript. When this migration completes you will no longer be able to scrape this page! CWMSDataAPI (CDA)

Timeseries IDs (TSIDs)

TSIDs used from left to right in the data table
WATT.Precip-Inc.Total.1Hour.1Hour.Ccp-Rev
WATT.Stage.Inst.1Hour.0.Ccp-Rev
WATT.Stage-Alt.Inst.1Hour.0.Ccp-Rev
WATT.Flow.Inst.1Hour.0.Ccp-Rev
WATT.Temp-Water.Inst.1Hour.0.Ccp-Rev
WATT.Volt-Battery.Inst.1Hour.0.Ccp-Rev
WATT.Volt-Battery Load.Inst.1Hour.0.Ccp-Rev

                            

All information presented herein is the property of the government of the United States of America and may be revised or deleted at any time without prior notice. Dissemination of this information without the expressed written consent of the Public Affairs Office, Tulsa District U.S. Army Corps of Engineers is strictly prohibited. These data are gathered electronically and, as presented, have NOT undergone any form of quality control. These data are NOT guaranteed to be valid or correct.